Terminal Aerodrome Forecast
Issued by NWS Upton, NY

Home | Current Version | Previous Version | Text Only | Print | Product List | Glossary On
Versions: 1 2 3 4 5 6 7 8 9 10 11 12 13 14 15 16 17 18 19 20 21 22 23 24 25 26
000
FTUS41 KOKX 170800 AAA
TAFISP
TAF AMD
KISP 170830Z 1709/1806 VRB02KT P6SM SKC
     FM171300 36006KT P6SM SKC
     FM171700 32006KT P6SM SCT050 SCT250
     FM171900 20008KT P6SM SCT050 SCT250
     FM180000 20005KT P6SM SCT250=

USA.gov is the U.S. government's official web portal to all federal, state and local government web resources and services.